createdAt,value
2023-03-01T00:00:46.961Z,994.34
2023-03-01T00:01:46.927Z,994.34
2023-03-01T00:02:46.943Z,994.34
2023-03-01T00:03:46.931Z,994.42
2023-03-01T00:04:46.922Z,994.37
2023-03-01T00:05:46.924Z,994.35
2023-03-01T00:06:46.893Z,994.35
2023-03-01T00:07:46.853Z,994.33
2023-03-01T00:08:46.875Z,994.34
2023-03-01T00:09:46.873Z,994.37
2023-03-01T00:10:46.873Z,994.37
2023-03-01T00:11:46.814Z,994.40
2023-03-01T00:12:46.823Z,994.43
2023-03-01T00:13:46.805Z,994.43
2023-03-01T00:14:46.813Z,994.44
2023-03-01T00:15:46.779Z,994.42
2023-03-01T00:16:46.851Z,994.44
2023-03-01T00:17:46.743Z,994.42
2023-03-01T00:18:46.795Z,994.41
2023-03-01T00:19:46.746Z,994.41
2023-03-01T00:20:46.741Z,994.36
2023-03-01T00:21:46.705Z,994.39
2023-03-01T00:22:46.713Z,994.42
2023-03-01T00:23:46.697Z,994.39
2023-03-01T00:24:46.702Z,994.40
2023-03-01T00:25:46.669Z,994.40
2023-03-01T00:26:46.683Z,994.39
2023-03-01T00:27:46.644Z,994.43
2023-03-01T00:28:46.656Z,994.39
2023-03-01T00:29:46.622Z,994.40
2023-03-01T00:30:46.662Z,994.42
2023-03-01T00:31:46.603Z,994.37
2023-03-01T00:32:46.616Z,994.39
2023-03-01T00:33:46.584Z,994.41
2023-03-01T00:34:46.591Z,994.44
2023-03-01T00:35:46.629Z,994.38
2023-03-01T00:36:47.428Z,994.40
2023-03-01T00:37:46.741Z,994.44
2023-03-01T00:38:46.563Z,994.41
2023-03-01T00:39:46.513Z,994.38
2023-03-01T00:40:46.523Z,994.40
2023-03-01T00:41:46.506Z,994.43
2023-03-01T00:42:46.526Z,994.37
2023-03-01T00:43:46.481Z,994.38
2023-03-01T00:44:46.495Z,994.40
2023-03-01T00:45:46.480Z,994.41
2023-03-01T00:46:46.464Z,994.36
2023-03-01T00:47:46.449Z,994.39
2023-03-01T00:48:46.467Z,994.37
2023-03-01T00:49:46.421Z,994.38
2023-03-01T00:50:46.423Z,994.32
2023-03-01T00:51:46.397Z,994.36
2023-03-01T00:52:46.402Z,994.36
2023-03-01T00:53:56.472Z,994.36
2023-03-01T00:54:46.401Z,994.36
2023-03-01T00:55:46.352Z,994.39
2023-03-01T00:56:46.361Z,994.37
2023-03-01T00:57:47.220Z,994.37
2023-03-01T00:58:46.377Z,994.34
2023-03-01T00:59:46.327Z,994.35
2023-03-01T01:00:46.419Z,994.31
2023-03-01T01:01:46.390Z,994.26
2023-03-01T01:02:46.383Z,994.25
2023-03-01T01:03:46.284Z,994.18
2023-03-01T01:04:46.300Z,994.24
2023-03-01T01:05:46.277Z,994.22
2023-03-01T01:06:46.318Z,994.19
2023-03-01T01:07:46.238Z,994.19
2023-03-01T01:08:46.257Z,994.21
2023-03-01T01:09:46.247Z,994.19
2023-03-01T01:10:46.229Z,994.21
2023-03-01T01:11:46.196Z,994.22
2023-03-01T01:12:46.198Z,994.22
2023-03-01T01:13:46.196Z,994.22
2023-03-01T01:14:46.184Z,994.19
2023-03-01T01:15:46.203Z,994.09
2023-03-01T01:16:46.179Z,994.10
2023-03-01T01:17:46.499Z,994.08
2023-03-01T01:18:46.192Z,994.09
2023-03-01T01:19:46.120Z,994.13
2023-03-01T01:20:46.117Z,994.11
2023-03-01T01:21:46.109Z,994.13
2023-03-01T01:22:46.113Z,994.07
2023-03-01T01:23:46.064Z,994.05
2023-03-01T01:24:46.059Z,994.08
2023-03-01T01:25:46.138Z,994.09
2023-03-01T01:26:46.045Z,994.09
2023-03-01T01:27:46.208Z,994.06
2023-03-01T01:28:46.092Z,994.10
2023-03-01T01:29:46.019Z,994.10
2023-03-01T01:30:46.007Z,994.11
2023-03-01T01:31:45.984Z,994.10
2023-03-01T01:32:45.966Z,994.11
2023-03-01T01:33:45.971Z,994.09
2023-03-01T01:34:45.984Z,994.11
2023-03-01T01:35:45.991Z,994.09
2023-03-01T01:36:45.922Z,994.11
2023-03-01T01:37:45.932Z,994.07
2023-03-01T01:38:45.898Z,994.01
2023-03-01T01:39:45.907Z,994.00
2023-03-01T01:40:45.897Z,993.98
2023-03-01T01:41:45.877Z,993.94
2023-03-01T01:42:45.840Z,993.95
2023-03-01T01:43:45.872Z,993.91
2023-03-01T01:44:45.819Z,993.96
2023-03-01T01:45:45.851Z,993.96
2023-03-01T01:46:45.930Z,994.02
2023-03-01T01:47:45.835Z,993.95
2023-03-01T01:48:45.778Z,993.97
2023-03-01T01:49:45.788Z,993.99
2023-03-01T01:50:45.820Z,993.95
2023-03-01T01:51:45.819Z,994.05
2023-03-01T01:52:45.728Z,993.98
2023-03-01T01:53:45.758Z,993.95
2023-03-01T01:54:45.707Z,993.99
2023-03-01T01:55:45.730Z,993.94
2023-03-01T01:56:45.712Z,993.91
2023-03-01T01:57:45.686Z,993.97
2023-03-01T01:58:45.948Z,993.95
2023-03-01T01:59:45.699Z,994.01
2023-03-01T02:00:45.635Z,994.01
2023-03-01T02:01:45.665Z,993.99
2023-03-01T02:02:45.767Z,993.98
2023-03-01T02:03:45.903Z,993.98
2023-03-01T02:04:45.615Z,993.97
2023-03-01T02:05:45.618Z,993.96
2023-03-01T02:06:45.614Z,993.98
2023-03-01T02:07:45.618Z,993.93
2023-03-01T02:08:46.285Z,993.93
2023-03-01T02:09:45.588Z,993.89
2023-03-01T02:10:45.536Z,993.89
2023-03-01T02:11:45.598Z,993.91
2023-03-01T02:12:45.546Z,993.89
2023-03-01T02:13:45.540Z,993.90
2023-03-01T02:14:45.535Z,993.91
2023-03-01T02:15:45.578Z,993.90
2023-03-01T02:16:45.530Z,993.85
2023-03-01T02:17:45.521Z,993.89
2023-03-01T02:18:45.464Z,993.88
2023-03-01T02:19:45.465Z,993.84
2023-03-01T02:20:45.706Z,993.84
2023-03-01T02:21:45.452Z,993.84
2023-03-01T02:22:45.409Z,993.85
2023-03-01T02:23:45.463Z,993.89
2023-03-01T02:24:45.583Z,993.83
2023-03-01T02:25:45.407Z,993.82
2023-03-01T02:26:45.375Z,993.81
2023-03-01T02:27:45.371Z,993.80
2023-03-01T02:28:45.345Z,993.81
2023-03-01T02:29:45.393Z,993.83
2023-03-01T02:30:45.312Z,993.76
2023-03-01T02:31:45.489Z,993.77
2023-03-01T02:32:45.318Z,993.75
2023-03-01T02:33:45.328Z,993.76
2023-03-01T02:34:45.272Z,993.74
2023-03-01T02:35:45.587Z,993.70
2023-03-01T02:36:45.325Z,993.63
2023-03-01T02:37:45.283Z,993.66
2023-03-01T02:38:45.235Z,993.65
2023-03-01T02:39:46.124Z,993.65
2023-03-01T02:40:45.229Z,993.64
2023-03-01T02:41:45.233Z,993.61
2023-03-01T02:42:45.233Z,993.61
2023-03-01T02:43:45.199Z,993.59
2023-03-01T02:44:45.160Z,993.57
2023-03-01T02:45:45.206Z,993.58
2023-03-01T02:46:45.220Z,993.58
2023-03-01T02:47:45.171Z,993.58
2023-03-01T02:48:45.139Z,993.56
2023-03-01T02:49:45.129Z,993.56
2023-03-01T02:50:45.201Z,993.53
2023-03-01T02:51:45.150Z,993.53
2023-03-01T02:52:45.079Z,993.51
2023-03-01T02:53:45.080Z,993.49
2023-03-01T02:54:45.093Z,993.52
2023-03-01T02:55:45.084Z,993.53
2023-03-01T02:56:45.056Z,993.50
2023-03-01T02:57:45.076Z,993.48
2023-03-01T02:58:45.021Z,993.47
2023-03-01T02:59:45.031Z,993.52
2023-03-01T03:00:45.167Z,993.49
2023-03-01T03:01:46.516Z,993.51
2023-03-01T03:02:44.977Z,993.49
2023-03-01T03:03:45.246Z,993.49
2023-03-01T03:04:44.968Z,993.50
2023-03-01T03:05:44.968Z,993.44
2023-03-01T03:06:44.921Z,993.48
2023-03-01T03:07:44.936Z,993.44
2023-03-01T03:08:45.018Z,993.39
2023-03-01T03:09:44.950Z,993.37
2023-03-01T03:10:44.895Z,993.41
2023-03-01T03:11:44.901Z,993.33
2023-03-01T03:12:44.886Z,993.32
2023-03-01T03:13:45.336Z,993.35
2023-03-01T03:14:44.845Z,993.30
2023-03-01T03:15:44.928Z,993.37
2023-03-01T03:16:44.884Z,993.38
2023-03-01T03:17:46.304Z,993.38
2023-03-01T03:18:44.830Z,993.41
2023-03-01T03:19:44.815Z,993.48
2023-03-01T03:20:44.830Z,993.48
2023-03-01T03:21:44.878Z,993.51
2023-03-01T03:22:44.768Z,993.51
2023-03-01T03:23:44.754Z,993.59
2023-03-01T03:24:44.728Z,993.58
2023-03-01T03:25:44.749Z,993.55
2023-03-01T03:26:44.732Z,993.52
2023-03-01T03:27:44.749Z,993.55
2023-03-01T03:28:44.713Z,993.53
2023-03-01T03:29:45.171Z,993.61
2023-03-01T03:30:44.678Z,993.55
2023-03-01T03:31:44.734Z,993.57
2023-03-01T03:32:44.651Z,993.57
2023-03-01T03:33:44.652Z,993.58
2023-03-01T03:34:44.660Z,993.49
2023-03-01T03:35:44.702Z,993.50
2023-03-01T03:36:44.653Z,993.45
2023-03-01T03:37:44.642Z,993.41
2023-03-01T03:38:44.569Z,993.36
2023-03-01T03:39:44.590Z,993.32
2023-03-01T03:40:44.575Z,993.30
2023-03-01T03:41:44.607Z,993.32
2023-03-01T03:42:44.540Z,993.33
2023-03-01T03:43:44.562Z,993.31
2023-03-01T03:44:44.509Z,993.28
2023-03-01T03:45:44.565Z,993.31
2023-03-01T03:46:44.560Z,993.28
2023-03-01T03:47:44.486Z,993.28
2023-03-01T03:48:44.482Z,993.23
2023-03-01T03:49:44.477Z,993.23
2023-03-01T03:50:44.549Z,993.19
2023-03-01T03:51:45.082Z,993.11
2023-03-01T03:52:44.436Z,993.14
2023-03-01T03:53:44.472Z,993.14
2023-03-01T03:54:44.500Z,993.17
2023-03-01T03:55:44.429Z,993.17
2023-03-01T03:56:44.379Z,993.17
2023-03-01T03:57:44.445Z,993.20
2023-03-01T03:58:44.450Z,993.19
2023-03-01T03:59:44.374Z,993.17
2023-03-01T04:00:44.367Z,993.15
2023-03-01T04:01:45.232Z,993.15
2023-03-01T04:02:44.890Z,993.14
2023-03-01T04:03:44.504Z,993.17
2023-03-01T04:04:44.282Z,993.15
2023-03-01T04:05:44.312Z,993.17
2023-03-01T04:06:44.288Z,993.15
2023-03-01T04:07:44.405Z,993.14
2023-03-01T04:08:44.253Z,993.12
2023-03-01T04:09:44.306Z,993.13
2023-03-01T04:10:44.226Z,993.18
2023-03-01T04:11:44.338Z,993.10
2023-03-01T04:12:44.252Z,993.14
2023-03-01T04:13:44.216Z,993.10
2023-03-01T04:14:44.223Z,993.14
2023-03-01T04:15:44.220Z,993.13
2023-03-01T04:16:44.178Z,993.16
2023-03-01T04:17:44.174Z,993.10
2023-03-01T04:18:44.227Z,993.09
2023-03-01T04:19:44.141Z,993.11
2023-03-01T04:20:44.115Z,993.04
2023-03-01T04:21:44.150Z,993.01
2023-03-01T04:22:44.089Z,992.99
2023-03-01T04:23:44.096Z,993.00
2023-03-01T04:24:44.057Z,993.00
2023-03-01T04:25:44.091Z,993.00
2023-03-01T04:26:44.045Z,993.06
2023-03-01T04:27:44.058Z,993.06
2023-03-01T04:28:44.035Z,993.08
2023-03-01T04:29:44.034Z,993.05
2023-03-01T04:30:44.002Z,993.05
2023-03-01T04:31:44.070Z,992.98
2023-03-01T04:32:44.046Z,992.96
2023-03-01T04:33:43.994Z,993.00
2023-03-01T04:34:43.940Z,992.99
2023-03-01T04:35:44.021Z,993.06
2023-03-01T04:36:43.998Z,993.03
2023-03-01T04:37:44.050Z,992.95
2023-03-01T04:38:43.911Z,992.91
2023-03-01T04:39:43.990Z,992.90
2023-03-01T04:40:43.899Z,992.91
2023-03-01T04:41:43.926Z,992.85
2023-03-01T04:42:43.861Z,992.84
2023-03-01T04:43:43.918Z,992.84
2023-03-01T04:44:43.864Z,992.83
2023-03-01T04:45:43.981Z,992.80
2023-03-01T04:46:43.833Z,992.85
2023-03-01T04:47:43.863Z,992.86
2023-03-01T04:48:43.799Z,992.91
2023-03-01T04:49:43.812Z,992.92
2023-03-01T04:50:43.926Z,992.91
2023-03-01T04:51:44.210Z,992.91
2023-03-01T04:52:43.819Z,992.92
2023-03-01T04:53:43.768Z,992.89
2023-03-01T04:54:43.735Z,992.92
2023-03-01T04:55:43.749Z,992.91
2023-03-01T04:56:43.753Z,992.96
2023-03-01T04:57:43.720Z,992.99
2023-03-01T04:58:43.681Z,992.99
2023-03-01T04:59:43.724Z,992.98
2023-03-01T05:00:43.668Z,992.94
2023-03-01T05:01:43.679Z,992.96
2023-03-01T05:02:43.686Z,992.94
2023-03-01T05:03:43.929Z,992.94
2023-03-01T05:04:43.684Z,992.93
2023-03-01T05:05:43.626Z,992.95
2023-03-01T05:06:43.603Z,992.97
2023-03-01T05:07:43.616Z,993.02
2023-03-01T05:08:43.566Z,993.00
2023-03-01T05:09:43.588Z,993.10
2023-03-01T05:10:43.567Z,993.07
2023-03-01T05:11:43.570Z,993.10
2023-03-01T05:12:43.526Z,993.07
2023-03-01T05:13:43.543Z,993.01
2023-03-01T05:14:43.522Z,993.05
2023-03-01T05:15:43.543Z,993.06
2023-03-01T05:16:43.494Z,993.04
2023-03-01T05:17:43.513Z,993.11
2023-03-01T05:18:43.456Z,993.02
2023-03-01T05:19:43.473Z,993.01
2023-03-01T05:20:43.434Z,993.02
2023-03-01T05:21:43.559Z,992.99
2023-03-01T05:22:43.445Z,993.04
2023-03-01T05:23:44.218Z,993.01
2023-03-01T05:24:43.443Z,993.01
2023-03-01T05:25:43.429Z,993.03
2023-03-01T05:26:43.722Z,993.04
2023-03-01T05:27:43.416Z,993.01
2023-03-01T05:28:43.381Z,992.97
2023-03-01T05:29:43.395Z,992.96
2023-03-01T05:30:43.373Z,993.00
2023-03-01T05:31:43.372Z,993.00
2023-03-01T05:32:43.363Z,993.00
2023-03-01T05:33:43.330Z,993.00
2023-03-01T05:34:43.293Z,992.95
2023-03-01T05:35:43.442Z,992.93
2023-03-01T05:36:43.291Z,992.94
2023-03-01T05:37:43.286Z,992.97
2023-03-01T05:38:43.275Z,992.98
2023-03-01T05:39:43.263Z,992.94
2023-03-01T05:40:43.222Z,992.98
2023-03-01T05:41:43.252Z,992.92
2023-03-01T05:42:43.202Z,992.92
2023-03-01T05:43:44.085Z,992.98
2023-03-01T05:44:43.199Z,992.97
2023-03-01T05:45:43.240Z,992.92
2023-03-01T05:46:43.179Z,992.88
2023-03-01T05:47:43.182Z,992.89
2023-03-01T05:48:43.168Z,992.91
2023-03-01T05:49:43.134Z,992.92
2023-03-01T05:50:43.138Z,992.97
2023-03-01T05:51:43.098Z,992.91
2023-03-01T05:52:43.120Z,992.90
2023-03-01T05:53:43.086Z,992.87
2023-03-01T05:54:43.101Z,992.88
2023-03-01T05:55:43.079Z,992.80
2023-03-01T05:56:43.128Z,992.84
2023-03-01T05:57:43.029Z,992.81
2023-03-01T05:58:43.064Z,992.78
2023-03-01T05:59:43.019Z,992.76
2023-03-01T06:00:43.034Z,992.81
2023-03-01T06:01:42.989Z,992.76
2023-03-01T06:02:43.041Z,992.76
2023-03-01T06:03:42.971Z,992.74
2023-03-01T06:04:43.524Z,992.77
2023-03-01T06:05:42.986Z,992.73
2023-03-01T06:06:42.994Z,992.72
2023-03-01T06:07:42.940Z,992.73
2023-03-01T06:08:43.010Z,992.70
2023-03-01T06:09:43.250Z,992.74
2023-03-01T06:10:42.929Z,992.73
2023-03-01T06:11:42.879Z,992.72
2023-03-01T06:12:42.897Z,992.77
2023-03-01T06:13:43.844Z,992.80
2023-03-01T06:14:42.912Z,992.82
2023-03-01T06:15:42.872Z,992.77
2023-03-01T06:16:43.741Z,992.79
2023-03-01T06:17:42.868Z,992.82
2023-03-01T06:18:42.880Z,992.84
2023-03-01T06:19:43.002Z,992.88
2023-03-01T06:20:43.593Z,992.88
2023-03-01T06:21:43.498Z,992.91
2023-03-01T06:22:43.676Z,992.90
2023-03-01T06:23:43.577Z,992.96
2023-03-01T06:24:43.478Z,992.93
2023-03-01T06:25:42.764Z,992.86
2023-03-01T06:26:42.829Z,992.88
2023-03-01T06:27:42.739Z,992.83
2023-03-01T06:28:42.731Z,992.85
2023-03-01T06:29:42.789Z,992.81
2023-03-01T06:30:42.706Z,992.83
2023-03-01T06:31:42.680Z,992.82
2023-03-01T06:32:42.698Z,992.83
2023-03-01T06:33:50.088Z,992.84
2023-03-01T06:34:42.655Z,992.78
2023-03-01T06:35:42.657Z,992.78
2023-03-01T06:36:42.638Z,992.72
2023-03-01T06:37:42.679Z,992.76
2023-03-01T06:38:42.876Z,992.75
2023-03-01T06:39:42.615Z,992.71
2023-03-01T06:40:42.595Z,992.72
2023-03-01T06:41:42.567Z,992.73
2023-03-01T06:42:42.595Z,992.75
2023-03-01T06:43:42.541Z,992.76
2023-03-01T06:44:42.566Z,992.70
2023-03-01T06:45:42.565Z,992.77
2023-03-01T06:46:42.661Z,992.75
2023-03-01T06:47:42.519Z,992.74
2023-03-01T06:48:42.506Z,992.73
2023-03-01T06:49:42.505Z,992.73
2023-03-01T06:50:42.562Z,992.77
2023-03-01T06:51:42.468Z,992.75
2023-03-01T06:52:42.469Z,992.74
2023-03-01T06:53:42.446Z,992.69
2023-03-01T06:54:42.430Z,992.72
2023-03-01T06:55:42.401Z,992.69
2023-03-01T06:56:42.422Z,992.68
2023-03-01T06:57:42.439Z,992.71
2023-03-01T06:58:42.397Z,992.72
2023-03-01T06:59:42.348Z,992.67
2023-03-01T07:00:42.358Z,992.69
2023-03-01T07:01:42.408Z,992.74
2023-03-01T07:02:42.401Z,992.73
2023-03-01T07:03:42.316Z,992.68
2023-03-01T07:04:43.229Z,992.65
2023-03-01T07:05:43.125Z,992.65
2023-03-01T07:06:42.715Z,992.68
2023-03-01T07:07:42.258Z,992.71
2023-03-01T07:08:42.366Z,992.70
2023-03-01T07:09:42.245Z,992.71
2023-03-01T07:10:42.254Z,992.70
2023-03-01T07:11:42.248Z,992.64
2023-03-01T07:12:42.245Z,992.64
2023-03-01T07:13:42.291Z,992.66
2023-03-01T07:14:43.010Z,992.71
2023-03-01T07:15:42.397Z,992.67
2023-03-01T07:16:42.488Z,992.70
2023-03-01T07:17:42.216Z,992.69
2023-03-01T07:18:42.206Z,992.67
2023-03-01T07:19:42.137Z,992.69
2023-03-01T07:20:42.196Z,992.63
2023-03-01T07:21:42.180Z,992.64
2023-03-01T07:22:42.135Z,992.65
2023-03-01T07:23:42.126Z,992.62
2023-03-01T07:24:42.175Z,992.68
2023-03-01T07:25:43.001Z,992.63
2023-03-01T07:26:42.880Z,992.66
2023-03-01T07:27:42.122Z,992.59
2023-03-01T07:28:42.080Z,992.56
2023-03-01T07:29:42.042Z,992.57
2023-03-01T07:30:42.091Z,992.56
2023-03-01T07:31:42.035Z,992.53
2023-03-01T07:32:42.212Z,992.52
2023-03-01T07:33:41.992Z,992.50
2023-03-01T07:34:42.000Z,992.49
2023-03-01T07:35:42.030Z,992.48
2023-03-01T07:36:41.984Z,992.41
2023-03-01T07:37:41.942Z,992.45
2023-03-01T07:38:41.972Z,992.37
2023-03-01T07:39:42.027Z,992.45
2023-03-01T07:40:41.920Z,992.42
2023-03-01T07:41:41.899Z,992.42
2023-03-01T07:42:41.910Z,992.39
2023-03-01T07:43:41.877Z,992.43
2023-03-01T07:44:42.011Z,992.38
2023-03-01T07:45:41.913Z,992.37
2023-03-01T07:46:42.779Z,992.33
2023-03-01T07:47:42.068Z,992.32
2023-03-01T07:48:41.849Z,992.31
2023-03-01T07:49:41.861Z,992.31
2023-03-01T07:50:41.830Z,992.32
2023-03-01T07:51:41.786Z,992.34
2023-03-01T07:52:41.895Z,992.32
2023-03-01T07:53:41.913Z,992.35
2023-03-01T07:54:41.795Z,992.35
2023-03-01T07:55:41.744Z,992.40
2023-03-01T07:56:41.828Z,992.37
2023-03-01T07:57:41.768Z,992.39
2023-03-01T07:58:41.746Z,992.33
2023-03-01T07:59:41.688Z,992.32
2023-03-01T08:00:41.942Z,992.36
2023-03-01T08:01:41.683Z,992.34
2023-03-01T08:02:41.701Z,992.33
2023-03-01T08:03:41.662Z,992.29
2023-03-01T08:04:41.692Z,992.37
2023-03-01T08:05:48.726Z,992.28
2023-03-01T08:06:41.644Z,992.33
2023-03-01T08:07:43.084Z,992.33
2023-03-01T08:08:41.628Z,992.30
2023-03-01T08:09:41.583Z,992.35
2023-03-01T08:10:41.591Z,992.35
2023-03-01T08:11:41.621Z,992.38
2023-03-01T08:12:41.571Z,992.34
2023-03-01T08:13:41.532Z,992.27
2023-03-01T08:14:41.572Z,992.31
2023-03-01T08:15:41.521Z,992.28
2023-03-01T08:16:41.562Z,992.26
2023-03-01T08:17:41.493Z,992.32
2023-03-01T08:18:41.517Z,992.29
2023-03-01T08:19:41.469Z,992.25
2023-03-01T08:20:41.498Z,992.26
2023-03-01T08:21:41.452Z,992.23
2023-03-01T08:22:41.458Z,992.21
2023-03-01T08:23:41.424Z,992.19
2023-03-01T08:24:41.429Z,992.12
2023-03-01T08:25:41.410Z,992.13
2023-03-01T08:26:41.419Z,992.10
2023-03-01T08:27:42.148Z,992.15
2023-03-01T08:28:41.408Z,992.20
2023-03-01T08:29:41.362Z,992.15
2023-03-01T08:30:41.377Z,992.16
2023-03-01T08:31:41.384Z,992.15
2023-03-01T08:32:41.438Z,992.18
2023-03-01T08:33:41.308Z,992.20
2023-03-01T08:34:42.567Z,992.20
2023-03-01T08:35:41.331Z,992.20
2023-03-01T08:36:41.312Z,992.17
2023-03-01T08:37:41.280Z,992.16
2023-03-01T08:38:41.289Z,992.21
2023-03-01T08:39:41.296Z,992.19
2023-03-01T08:40:41.255Z,992.21
2023-03-01T08:41:41.221Z,992.15
2023-03-01T08:42:41.239Z,992.16
2023-03-01T08:43:41.213Z,992.13
2023-03-01T08:44:41.211Z,992.19
2023-03-01T08:45:41.256Z,992.13
2023-03-01T08:46:41.216Z,992.13
2023-03-01T08:47:41.156Z,992.12
2023-03-01T08:48:41.736Z,992.09
2023-03-01T08:49:41.136Z,992.12
2023-03-01T08:50:42.445Z,992.12
2023-03-01T08:51:41.187Z,992.09
2023-03-01T08:52:41.117Z,992.11
2023-03-01T08:53:41.086Z,992.14
2023-03-01T08:54:41.106Z,992.09
2023-03-01T08:55:41.059Z,992.07
2023-03-01T08:56:41.088Z,992.10
2023-03-01T08:57:41.055Z,992.08
2023-03-01T08:58:41.068Z,991.99
2023-03-01T08:59:41.022Z,992.01
2023-03-01T09:00:41.051Z,991.98
2023-03-01T09:01:41.000Z,991.99
2023-03-01T09:02:41.088Z,991.96
2023-03-01T09:03:40.981Z,992.03
2023-03-01T09:04:40.991Z,992.03
2023-03-01T09:05:40.964Z,992.07
2023-03-01T09:06:40.965Z,992.19
2023-03-01T09:07:40.925Z,992.07
2023-03-01T09:08:40.969Z,992.08
2023-03-01T09:09:40.925Z,992.00
2023-03-01T09:10:40.928Z,991.97
2023-03-01T09:11:40.894Z,992.01
2023-03-01T09:12:40.905Z,992.01
2023-03-01T09:13:43.003Z,992.02
2023-03-01T09:14:40.882Z,992.04
2023-03-01T09:15:40.856Z,992.00
2023-03-01T09:16:41.086Z,991.98
2023-03-01T09:17:40.851Z,991.94
2023-03-01T09:18:40.876Z,992.03
2023-03-01T09:19:40.794Z,992.02
2023-03-01T09:20:40.813Z,992.00
2023-03-01T09:21:41.431Z,992.02
2023-03-01T09:22:41.039Z,992.03
2023-03-01T09:23:40.755Z,992.01
2023-03-01T09:24:40.763Z,992.02
2023-03-01T09:25:40.723Z,992.00
2023-03-01T09:26:40.756Z,991.94
2023-03-01T09:27:40.752Z,991.93
2023-03-01T09:28:41.066Z,991.93
2023-03-01T09:29:40.684Z,991.99
2023-03-01T09:30:40.724Z,991.96
2023-03-01T09:31:40.674Z,992.00
2023-03-01T09:32:40.688Z,991.95
2023-03-01T09:33:40.654Z,991.95
2023-03-01T09:34:40.654Z,991.88
2023-03-01T09:35:40.645Z,991.91
2023-03-01T09:36:40.629Z,991.91
2023-03-01T09:37:40.595Z,991.92
2023-03-01T09:38:40.737Z,991.91
2023-03-01T09:39:40.574Z,991.90
2023-03-01T09:40:40.585Z,991.85
2023-03-01T09:41:40.561Z,991.86
2023-03-01T09:42:40.569Z,991.89
2023-03-01T09:43:40.525Z,991.88
2023-03-01T09:44:40.567Z,991.86
2023-03-01T09:45:40.524Z,991.85
2023-03-01T09:46:40.510Z,991.90
2023-03-01T09:47:41.188Z,991.91
2023-03-01T09:48:40.495Z,991.89
2023-03-01T09:49:40.474Z,991.85
2023-03-01T09:50:40.494Z,991.83
2023-03-01T09:51:40.493Z,991.77
2023-03-01T09:52:40.460Z,991.76
2023-03-01T09:53:40.495Z,991.78
2023-03-01T09:54:40.449Z,991.77
2023-03-01T09:55:40.391Z,991.78
2023-03-01T09:56:40.414Z,991.82
2023-03-01T09:57:40.559Z,991.74
2023-03-01T09:58:40.384Z,991.76
2023-03-01T09:59:40.345Z,991.67
2023-03-01T10:00:40.364Z,991.71
2023-03-01T10:01:40.332Z,991.68
2023-03-01T10:02:40.355Z,991.69
2023-03-01T10:03:40.388Z,991.69
2023-03-01T10:04:40.386Z,991.74
2023-03-01T10:05:40.535Z,991.72
2023-03-01T10:06:40.288Z,991.71
2023-03-01T10:07:40.285Z,991.72
2023-03-01T10:08:40.264Z,991.67
2023-03-01T10:09:40.454Z,991.69
2023-03-01T10:10:40.243Z,991.65
2023-03-01T10:11:40.699Z,991.60
2023-03-01T10:12:40.243Z,991.60
2023-03-01T10:13:40.218Z,991.58
2023-03-01T10:14:40.205Z,991.57
2023-03-01T10:15:40.257Z,991.52
2023-03-01T10:16:40.152Z,991.44
2023-03-01T10:17:40.185Z,991.46
2023-03-01T10:18:40.696Z,991.45
2023-03-01T10:19:40.883Z,991.42
2023-03-01T10:20:40.151Z,991.42
2023-03-01T10:21:40.134Z,991.41
2023-03-01T10:22:40.104Z,991.37
2023-03-01T10:23:40.102Z,991.33
2023-03-01T10:24:40.072Z,991.35
2023-03-01T10:25:42.460Z,991.32
2023-03-01T10:26:40.102Z,991.29
2023-03-01T10:27:40.065Z,991.22
2023-03-01T10:28:40.064Z,991.32
2023-03-01T10:29:40.041Z,991.20
2023-03-01T10:30:40.858Z,991.21
2023-03-01T10:31:40.107Z,991.22
2023-03-01T10:32:39.996Z,991.17
2023-03-01T10:33:40.054Z,991.14
2023-03-01T10:34:39.963Z,991.19
2023-03-01T10:35:40.006Z,991.16
2023-03-01T10:36:39.933Z,991.13
2023-03-01T10:37:39.952Z,991.16
2023-03-01T10:38:39.924Z,991.13
2023-03-01T10:39:39.939Z,991.13
2023-03-01T10:40:39.891Z,991.12
2023-03-01T10:41:39.900Z,991.09
2023-03-01T10:42:39.873Z,991.12
2023-03-01T10:43:39.872Z,991.15
2023-03-01T10:44:39.869Z,991.14
2023-03-01T10:45:39.871Z,991.14
2023-03-01T10:46:39.863Z,991.16
2023-03-01T10:47:39.830Z,991.11
2023-03-01T10:48:39.804Z,991.14
2023-03-01T10:49:39.813Z,991.11
2023-03-01T10:50:41.953Z,991.15
2023-03-01T10:51:39.800Z,991.09
2023-03-01T10:52:39.760Z,991.11
2023-03-01T10:53:39.773Z,991.04
2023-03-01T10:54:39.760Z,991.07
2023-03-01T10:55:39.754Z,991.04
2023-03-01T10:56:39.760Z,991.01
2023-03-01T10:57:42.384Z,991.04
2023-03-01T10:58:39.697Z,991.02
2023-03-01T10:59:39.709Z,990.95
2023-03-01T11:00:40.070Z,990.91
2023-03-01T11:01:39.684Z,990.99
2023-03-01T11:02:39.758Z,990.96
2023-03-01T11:03:39.704Z,991.00
2023-03-01T11:04:39.706Z,990.95
2023-03-01T11:05:39.645Z,990.93
2023-03-01T11:06:39.600Z,990.96
2023-03-01T11:07:39.611Z,990.97
2023-03-01T11:08:39.589Z,990.87
2023-03-01T11:09:39.589Z,990.82
2023-03-01T11:10:39.557Z,990.87
2023-03-01T11:11:40.498Z,990.85
2023-03-01T11:12:39.542Z,990.84
2023-03-01T11:13:39.638Z,990.85
2023-03-01T11:14:39.508Z,990.82
2023-03-01T11:15:39.540Z,990.77
2023-03-01T11:16:39.481Z,990.76
2023-03-01T11:17:53.143Z,990.74
2023-03-01T11:18:48.260Z,990.72
2023-03-01T11:19:40.499Z,990.72
2023-03-01T11:20:39.483Z,990.73
2023-03-01T11:21:39.448Z,990.75
2023-03-01T11:22:39.432Z,990.78
2023-03-01T11:23:39.424Z,990.66
2023-03-01T11:24:40.381Z,990.70
2023-03-01T11:25:39.422Z,990.65
2023-03-01T11:26:39.369Z,990.63
2023-03-01T11:27:40.099Z,990.64
2023-03-01T11:28:39.347Z,990.73
2023-03-01T11:29:48.468Z,990.73
2023-03-01T11:30:40.339Z,990.72
2023-03-01T11:31:44.170Z,990.70
2023-03-01T11:32:40.454Z,990.66
2023-03-01T11:33:39.309Z,990.68
2023-03-01T11:34:39.263Z,990.66
2023-03-01T11:35:39.299Z,990.66
2023-03-01T11:36:39.264Z,990.64
2023-03-01T11:37:39.264Z,990.60
2023-03-01T11:38:39.218Z,990.61
2023-03-01T11:39:39.252Z,990.60
2023-03-01T11:40:39.212Z,990.53
2023-03-01T11:41:39.210Z,990.54
2023-03-01T11:42:39.176Z,990.46
2023-03-01T11:43:39.192Z,990.48
2023-03-01T11:44:39.154Z,990.41
2023-03-01T11:45:39.169Z,990.45
2023-03-01T11:46:39.256Z,990.37
2023-03-01T11:47:39.387Z,990.37
2023-03-01T11:48:49.020Z,990.33
2023-03-01T11:49:40.120Z,990.31
2023-03-01T11:50:39.099Z,990.24
2023-03-01T11:51:39.117Z,990.30
2023-03-01T11:52:39.893Z,990.27
2023-03-01T11:53:39.099Z,990.22
2023-03-01T11:54:39.071Z,990.27
2023-03-01T11:55:39.065Z,990.26
2023-03-01T11:56:39.015Z,990.26
2023-03-01T11:57:43.791Z,990.24
2023-03-01T11:58:40.027Z,990.24
2023-03-01T11:59:39.003Z,990.23
2023-03-01T12:00:39.028Z,990.25
2023-03-01T12:01:42.156Z,990.23
2023-03-01T12:02:38.951Z,990.15
2023-03-01T12:03:39.008Z,990.20
2023-03-01T12:04:38.991Z,990.14
2023-03-01T12:05:38.974Z,990.09
2023-03-01T12:06:38.972Z,990.11
2023-03-01T12:07:38.932Z,990.07
2023-03-01T12:08:38.908Z,990.05
2023-03-01T12:09:38.922Z,990.00
2023-03-01T12:10:38.865Z,990.05
2023-03-01T12:11:38.882Z,990.04
2023-03-01T12:12:39.966Z,990.02
2023-03-01T12:13:39.606Z,990.03
2023-03-01T12:14:38.838Z,990.06
2023-03-01T12:15:38.831Z,990.03
2023-03-01T12:16:39.837Z,990.01
2023-03-01T12:17:38.819Z,990.00
2023-03-01T12:18:38.772Z,989.97
2023-03-01T12:19:38.790Z,989.92
2023-03-01T12:20:38.748Z,989.95
2023-03-01T12:21:38.762Z,989.97
2023-03-01T12:22:38.774Z,989.97
2023-03-01T12:23:38.741Z,989.94
2023-03-01T12:24:38.722Z,989.95
2023-03-01T12:25:38.745Z,989.95
2023-03-01T12:26:38.688Z,989.92
2023-03-01T12:27:38.694Z,989.91
2023-03-01T12:28:38.669Z,989.89